Time;durP1;ratioP1;P1;durP2;ratioP2;P2;SDS_P1;SDS_P2;PMS_P1;PMS_P2;Temp;Humidity;BMP_temperature;BMP_pressure;BME280_temperature;BME280_humidity;BME280_pressure;Samples;Min_cycle;Max_cycle;Signal;HPM_P1;HPM_P2
2023/01/31 00:00:17;;;;;;;15.93;6.10;;;5.70;99.90;;;;;;5092407;28;20192;-66
2023/01/31 00:02:43;;;;;;;13.03;6.03;;;5.80;99.90;;;;;;5083977;28;20226;-67
2023/01/31 00:05:09;;;;;;;15.27;5.97;;;5.90;99.90;;;;;;5092401;28;20199;-66
2023/01/31 00:07:34;;;;;;;12.40;6.33;;;5.70;99.90;;;;;;5082098;28;20182;-67
2023/01/31 00:10:00;;;;;;;7.73;5.43;;;5.80;99.90;;;;;;5085458;28;20785;-66
2023/01/31 00:12:26;;;;;;;14.53;5.83;;;5.80;99.90;;;;;;5082901;28;20701;-67
2023/01/31 00:14:51;;;;;;;13.37;5.90;;;5.70;99.90;;;;;;5082632;28;20193;-67
2023/01/31 00:17:17;;;;;;;13.60;7.03;;;5.80;99.90;;;;;;5089002;28;20236;-66
2023/01/31 00:19:43;;;;;;;12.60;5.87;;;5.80;99.90;;;;;;5087279;28;20195;-66
2023/01/31 00:22:08;;;;;;;10.90;7.43;;;5.90;99.90;;;;;;5082659;28;20192;-66
2023/01/31 00:24:34;;;;;;;15.30;7.30;;;5.80;99.90;;;;;;5092299;28;20687;-66
2023/01/31 00:26:59;;;;;;;15.70;6.43;;;5.60;99.90;;;;;;5086132;28;20570;-66
2023/01/31 00:29:25;;;;;;;13.23;7.03;;;5.80;99.90;;;;;;5086278;28;20219;-66
2023/01/31 00:31:51;;;;;;;10.70;6.37;;;5.80;99.90;;;;;;5123768;27;21625;-67
2023/01/31 00:34:17;;;;;;;13.13;7.13;;;5.60;99.90;;;;;;5092623;28;20192;-66
2023/01/31 00:36:43;;;;;;;21.77;8.77;;;5.50;99.90;;;;;;5090745;28;20193;-66
2023/01/31 00:39:10;;;;;;;20.60;7.97;;;5.60;99.90;;;;;;5081452;28;20245;-67
2023/01/31 00:41:37;;;;;;;12.10;6.80;;;5.50;99.90;;;;;;5091431;28;20200;-66
2023/01/31 00:44:03;;;;;;;19.00;7.40;;;5.70;99.90;;;;;;5119994;27;20185;-67
2023/01/31 00:46:29;;;;;;;13.30;7.37;;;5.60;99.90;;;;;;5090255;28;20189;-66
2023/01/31 00:48:56;;;;;;;15.43;7.73;;;5.50;99.90;;;;;;5085869;28;20246;-67
2023/01/31 00:51:22;;;;;;;16.67;6.83;;;5.50;99.90;;;;;;5088392;28;20649;-66
2023/01/31 00:53:49;;;;;;;22.23;6.53;;;5.60;99.90;;;;;;5090648;28;20184;-67
2023/01/31 00:56:17;;;;;;;12.27;6.57;;;5.50;99.90;;;;;;5078715;28;20187;-67
2023/01/31 00:58:43;;;;;;;17.07;7.97;;;5.30;99.90;;;;;;5091649;28;20255;-67
2023/01/31 01:01:15;;;;;;;16.20;6.90;;;5.30;99.90;;;;;;5091205;28;20272;-67
2023/01/31 01:03:42;;;;;;;15.30;6.77;;;5.30;99.90;;;;;;5078520;28;20208;-66
2023/01/31 01:06:09;;;;;;;16.83;6.60;;;5.30;99.90;;;;;;5107573;28;20275;-67
2023/01/31 01:08:36;;;;;;;9.33;6.47;;;5.30;99.90;;;;;;5091664;28;20226;-68
2023/01/31 01:11:29;;;;;;;14.13;7.20;;;5.20;99.90;;;;;;5096133;28;20211;-66
2023/01/31 01:13:56;;;;;;;13.10;6.50;;;5.30;99.90;;;;;;5081037;28;20241;-66
2023/01/31 01:16:34;;;;;;;13.07;6.03;;;5.30;99.90;;;;;;5094066;28;20189;-66
2023/01/31 01:19:04;;;;;;;7.77;7.03;;;5.30;99.90;;;;;;5084723;28;20217;-67
2023/01/31 01:21:30;;;;;;;17.73;7.40;;;5.20;99.90;;;;;;5093439;28;20177;-66
2023/01/31 01:23:58;;;;;;;13.77;6.53;;;5.40;99.90;;;;;;5078841;28;20177;-66
2023/01/31 01:26:27;;;;;;;10.87;5.90;;;5.40;99.90;;;;;;5084832;28;20208;-66
2023/01/31 01:28:54;;;;;;;13.17;6.27;;;5.30;99.90;;;;;;5095738;28;20180;-67
2023/01/31 01:31:20;;;;;;;8.80;5.30;;;5.10;99.90;;;;;;5095943;28;20234;-67
2023/01/31 01:33:48;;;;;;;16.07;7.13;;;5.00;99.90;;;;;;5095187;28;20588;-66
2023/01/31 01:36:16;;;;;;;15.10;6.80;;;5.00;99.90;;;;;;5095095;28;20181;-66
2023/01/31 01:38:43;;;;;;;10.87;5.33;;;4.90;99.90;;;;;;5093977;28;20196;-66
2023/01/31 01:41:10;;;;;;;11.73;6.03;;;4.90;99.90;;;;;;5095283;28;20184;-66
2023/01/31 01:43:39;;;;;;;12.27;6.23;;;4.80;99.90;;;;;;5093907;28;20187;-67
2023/01/31 01:46:06;;;;;;;13.37;6.97;;;4.80;99.90;;;;;;5087366;28;20193;-66
2023/01/31 01:48:31;;;;;;;12.67;6.50;;;5.00;99.90;;;;;;5093807;28;20185;-66
2023/01/31 01:50:58;;;;;;;11.23;7.23;;;5.10;99.90;;;;;;5094550;28;20196;-66
2023/01/31 01:53:27;;;;;;;13.10;6.40;;;5.00;99.90;;;;;;5094394;28;20212;-67
2023/01/31 01:56:06;;;;;;;9.03;5.77;;;5.10;99.90;;;;;;5087880;28;20181;-67
2023/01/31 01:58:35;;;;;;;13.00;7.13;;;5.20;99.90;;;;;;5088299;28;20177;-66
2023/01/31 02:01:04;;;;;;;8.43;6.10;;;5.00;99.90;;;;;;5082790;28;20272;-67
2023/01/31 02:03:30;;;;;;;14.77;6.70;;;5.00;99.90;;;;;;5090468;28;20264;-66
2023/01/31 02:06:00;;;;;;;16.20;6.50;;;5.10;99.90;;;;;;5094228;28;20263;-67
2023/01/31 02:08:30;;;;;;;12.83;7.53;;;5.10;99.90;;;;;;5083667;28;20176;-66
2023/01/31 02:11:17;;;;;;;8.33;5.70;;;5.00;99.90;;;;;;5095047;28;20192;-67
2023/01/31 02:13:45;;;;;;;8.97;6.80;;;4.90;99.90;;;;;;5087140;28;20602;-66
2023/01/31 02:16:11;;;;;;;11.83;7.37;;;4.90;99.90;;;;;;5090088;28;20185;-66
2023/01/31 02:18:37;;;;;;;17.67;5.57;;;4.80;99.90;;;;;;5084062;28;20652;-66
2023/01/31 02:21:37;;;;;;;8.47;5.77;;;4.80;99.90;;;;;;5090664;28;20191;-66
2023/01/31 02:24:12;;;;;;;17.63;6.60;;;4.70;99.90;;;;;;5079850;28;20521;-66
2023/01/31 02:26:52;;;;;;;15.90;6.60;;;4.70;99.90;;;;;;5093847;28;20180;-66
2023/01/31 02:29:50;;;;;;;14.80;6.67;;;4.70;99.90;;;;;;5094921;28;20196;-66
2023/01/31 02:32:37;;;;;;;13.43;6.57;;;4.60;99.90;;;;;;5044788;28;20302;-66
2023/01/31 02:35:09;;;;;;;8.90;6.27;;;4.50;99.90;;;;;;5074846;28;20185;-67
2023/01/31 02:37:46;;;;;;;10.23;6.70;;;4.40;99.90;;;;;;5083165;28;20662;-66
2023/01/31 02:40:23;;;;;;;12.50;6.70;;;4.50;99.90;;;;;;5094253;28;20238;-66
2023/01/31 02:44:58;;;;;;;16.20;6.53;;;4.60;99.90;;;;;;5094644;28;20176;-66
2023/01/31 02:46:47;;;;;;;8.33;5.23;;;4.60;99.90;;;;;;5083957;28;20188;-66
2023/01/31 02:49:34;;;;;;;13.40;6.47;;;4.50;99.90;;;;;;5082779;28;20193;-66
2023/01/31 02:52:42;;;;;;;13.07;8.33;;;4.40;99.90;;;;;;5092541;28;20686;-66
2023/01/31 02:58:16;;;;;;;14.33;7.30;;;4.70;99.90;;;;;;5083436;28;20269;-66
2023/01/31 03:00:44;;;;;;;7.40;6.70;;;4.70;99.90;;;;;;5093514;28;20181;-66
2023/01/31 03:03:23;;;;;;;16.27;7.17;;;4.70;99.90;;;;;;5093732;28;20189;-66
2023/01/31 03:06:33;;;;;;;8.97;7.57;;;4.50;99.90;;;;;;5082979;28;20177;-66
2023/01/31 03:09:03;;;;;;;12.33;7.43;;;4.30;99.90;;;;;;5087132;28;20180;-66
2023/01/31 03:11:54;;;;;;;12.47;7.37;;;4.30;99.90;;;;;;5078513;28;20173;-66
2023/01/31 03:14:32;;;;;;;12.00;8.50;;;4.30;99.90;;;;;;5085295;28;20193;-66
2023/01/31 03:20:11;;;;;;;10.63;7.60;;;4.20;99.90;;;;;;5088277;28;20192;-66
2023/01/31 03:22:49;;;;;;;11.13;7.80;;;4.40;99.90;;;;;;5093070;28;20180;-66
2023/01/31 03:25:20;;;;;;;10.23;6.87;;;4.50;99.90;;;;;;5088609;28;20200;-66
2023/01/31 03:27:54;;;;;;;12.33;6.57;;;4.40;99.90;;;;;;5083342;28;20571;-66
2023/01/31 03:31:04;;;;;;;13.67;7.50;;;4.30;99.90;;;;;;5086581;28;20208;-66
2023/01/31 03:33:36;;;;;;;12.87;7.03;;;4.30;99.90;;;;;;5078589;28;20205;-66
2023/01/31 03:36:20;;;;;;;9.17;7.53;;;4.40;99.90;;;;;;5086800;28;20239;-66
2023/01/31 03:39:02;;;;;;;15.30;7.67;;;4.50;99.90;;;;;;5085117;28;20314;-66
2023/01/31 03:41:39;;;;;;;9.60;7.00;;;4.50;99.90;;;;;;5075899;28;20768;-66
2023/01/31 03:44:33;;;;;;;15.33;9.23;;;4.40;99.90;;;;;;5093270;28;20181;-66
2023/01/31 03:47:17;;;;;;;14.83;7.07;;;4.30;99.90;;;;;;5089115;28;20215;-65
2023/01/31 03:49:45;;;;;;;15.57;7.23;;;4.30;99.90;;;;;;5092970;28;20215;-65
2023/01/31 03:52:14;;;;;;;19.67;8.00;;;4.40;99.90;;;;;;5092748;28;20196;-65
2023/01/31 03:54:46;;;;;;;12.23;8.30;;;4.40;99.90;;;;;;5093267;28;20181;-66
2023/01/31 03:57:22;;;;;;;16.67;7.83;;;4.40;99.90;;;;;;5087421;28;20284;-65
2023/01/31 03:59:54;;;;;;;13.33;8.93;;;4.30;99.90;;;;;;5085293;28;20183;-65
2023/01/31 04:02:24;;;;;;;20.77;8.47;;;4.50;99.90;;;;;;5086592;28;20209;-65
2023/01/31 04:05:05;;;;;;;14.73;8.17;;;4.40;99.90;;;;;;5084875;28;20180;-65
2023/01/31 04:07:31;;;;;;;18.50;8.20;;;4.10;99.90;;;;;;5090936;28;20264;-65
2023/01/31 04:09:57;;;;;;;9.60;7.07;;;4.10;99.90;;;;;;5091873;28;20296;-66
2023/01/31 04:12:23;;;;;;;10.70;7.00;;;4.00;99.90;;;;;;5089670;28;20215;-66
2023/01/31 04:14:48;;;;;;;17.60;7.40;;;3.90;99.90;;;;;;5076757;28;20196;-67
2023/01/31 04:17:14;;;;;;;12.03;6.83;;;3.90;99.90;;;;;;5078971;28;20200;-66
2023/01/31 04:19:40;;;;;;;15.50;7.13;;;4.00;99.90;;;;;;5090830;28;20219;-66
2023/01/31 04:22:05;;;;;;;7.73;6.33;;;4.10;99.90;;;;;;5100477;28;20217;-66
2023/01/31 04:24:31;;;;;;;16.10;6.40;;;4.10;99.90;;;;;;5078854;28;20192;-66
2023/01/31 04:26:57;;;;;;;12.23;6.80;;;4.10;99.90;;;;;;5092552;28;20249;-66
2023/01/31 04:29:22;;;;;;;10.70;5.87;;;4.10;99.90;;;;;;5090856;28;21068;-66
2023/01/31 04:31:48;;;;;;;8.97;6.33;;;4.20;99.90;;;;;;5085736;28;20216;-66
2023/01/31 04:34:14;;;;;;;11.10;6.67;;;4.00;99.90;;;;;;5088078;28;20325;-66
2023/01/31 04:36:40;;;;;;;16.67;7.97;;;4.00;99.90;;;;;;5077959;28;20185;-67
2023/01/31 04:39:06;;;;;;;13.83;8.00;;;4.00;99.90;;;;;;5092051;28;20675;-66
2023/01/31 04:41:31;;;;;;;13.20;6.07;;;4.10;99.90;;;;;;5086737;28;20187;-66
2023/01/31 04:43:57;;;;;;;9.77;6.57;;;4.10;99.90;;;;;;5078142;28;20260;-66
2023/01/31 04:46:23;;;;;;;15.17;7.13;;;4.00;99.90;;;;;;5087281;28;20180;-66
2023/01/31 04:48:48;;;;;;;15.20;6.90;;;4.10;99.90;;;;;;5083504;28;20235;-66
2023/01/31 04:51:14;;;;;;;8.23;5.97;;;4.10;99.90;;;;;;5090339;28;20648;-66
2023/01/31 04:53:43;;;;;;;13.20;6.23;;;4.10;99.90;;;;;;5081941;28;20212;-66
2023/01/31 04:56:08;;;;;;;8.87;6.30;;;4.20;99.90;;;;;;5091910;28;20199;-66
2023/01/31 04:58:34;;;;;;;13.07;7.50;;;4.20;99.90;;;;;;5091558;28;20559;-66
2023/01/31 05:01:00;;;;;;;15.40;6.77;;;4.20;99.90;;;;;;5086217;28;20189;-66
2023/01/31 05:03:25;;;;;;;13.00;7.13;;;4.20;99.90;;;;;;5090537;28;20204;-66
2023/01/31 05:05:51;;;;;;;12.10;5.87;;;4.40;99.90;;;;;;5086881;28;20770;-66
2023/01/31 05:08:17;;;;;;;19.80;6.27;;;4.40;99.90;;;;;;5088688;28;20213;-67
2023/01/31 05:10:42;;;;;;;7.53;5.20;;;4.40;99.90;;;;;;5076656;28;20248;-67
2023/01/31 05:13:09;;;;;;;12.33;6.50;;;4.40;99.90;;;;;;5090681;28;20248;-65
2023/01/31 05:15:35;;;;;;;8.33;5.37;;;4.40;99.90;;;;;;5077431;28;20197;-67
2023/01/31 05:18:04;;;;;;;9.83;6.30;;;4.40;99.90;;;;;;5088095;28;20189;-65
2023/01/31 05:20:33;;;;;;;14.27;6.80;;;4.30;99.90;;;;;;5091998;28;20187;-67
2023/01/31 05:22:59;;;;;;;13.27;6.23;;;4.30;99.90;;;;;;5077997;28;20195;-66
2023/01/31 05:25:25;;;;;;;8.30;5.97;;;4.40;99.90;;;;;;5092021;28;20193;-66
2023/01/31 05:27:52;;;;;;;12.83;6.70;;;4.40;99.90;;;;;;5090059;28;20188;-66
2023/01/31 05:30:18;;;;;;;9.60;5.97;;;4.30;99.90;;;;;;5091779;28;20676;-65
2023/01/31 05:32:45;;;;;;;11.03;5.17;;;4.40;99.90;;;;;;5091379;28;20381;-66
2023/01/31 05:35:11;;;;;;;9.30;5.37;;;4.40;99.90;;;;;;5084526;28;20595;-66
2023/01/31 05:37:41;;;;;;;7.13;5.43;;;4.50;99.90;;;;;;5090050;28;20188;-67
2023/01/31 05:40:17;;;;;;;9.30;5.83;;;4.60;99.90;;;;;;5088113;28;20561;-66
2023/01/31 05:42:42;;;;;;;7.13;4.67;;;4.50;99.90;;;;;;5077574;28;20550;-66
2023/01/31 05:45:10;;;;;;;18.50;6.03;;;4.40;99.90;;;;;;5078107;28;20263;-66
2023/01/31 05:47:36;;;;;;;7.47;5.13;;;4.40;99.90;;;;;;5091612;28;20180;-66
2023/01/31 05:50:02;;;;;;;13.90;5.93;;;4.50;99.90;;;;;;5090798;28;20184;-66
2023/01/31 05:52:28;;;;;;;12.90;5.27;;;4.50;99.90;;;;;;5090609;28;20567;-67
2023/01/31 05:54:53;;;;;;;9.80;4.83;;;4.60;99.90;;;;;;5107569;28;20192;-66
2023/01/31 05:57:19;;;;;;;8.67;5.00;;;4.60;99.90;;;;;;5096067;28;20243;-64
2023/01/31 05:59:45;;;;;;;5.23;4.30;;;4.60;99.90;;;;;;5095495;28;20245;-65
2023/01/31 06:02:11;;;;;;;9.57;5.20;;;4.60;99.90;;;;;;5094420;28;20188;-65
2023/01/31 06:04:37;;;;;;;13.90;5.63;;;4.50;99.90;;;;;;5093599;28;20216;-65
2023/01/31 06:07:03;;;;;;;7.70;4.93;;;4.60;99.90;;;;;;5090194;28;20211;-66
2023/01/31 06:09:28;;;;;;;9.60;5.03;;;4.70;99.90;;;;;;5093850;28;20640;-66
2023/01/31 06:11:54;;;;;;;9.70;4.70;;;4.60;99.90;;;;;;5082659;28;20216;-67
2023/01/31 06:14:20;;;;;;;14.53;5.53;;;4.60;99.90;;;;;;5090773;28;20192;-67
2023/01/31 06:16:46;;;;;;;11.93;5.80;;;4.60;99.90;;;;;;5095236;28;20188;-66
2023/01/31 06:19:11;;;;;;;9.50;5.17;;;4.70;99.90;;;;;;5081028;28;20254;-67
2023/01/31 06:21:37;;;;;;;10.73;4.67;;;4.80;99.90;;;;;;5075947;28;20201;-66
2023/01/31 06:24:03;;;;;;;13.60;4.93;;;4.80;99.90;;;;;;5086327;28;20195;-66
2023/01/31 06:26:29;;;;;;;11.40;4.27;;;5.00;99.90;;;;;;5088148;28;20260;-66
2023/01/31 06:28:55;;;;;;;7.27;4.07;;;5.00;99.90;;;;;;5078028;28;20281;-66
2023/01/31 06:31:20;;;;;;;11.20;5.67;;;5.00;99.90;;;;;;5084175;28;20182;-66
2023/01/31 06:33:46;;;;;;;8.57;3.90;;;5.00;99.90;;;;;;5080065;28;20197;-67
2023/01/31 06:36:12;;;;;;;6.57;4.97;;;4.90;99.90;;;;;;5087976;28;20195;-67
2023/01/31 06:38:37;;;;;;;9.53;5.37;;;4.90;99.90;;;;;;5088879;28;20223;-66
2023/01/31 06:41:03;;;;;;;7.43;3.70;;;5.00;99.90;;;;;;5083541;28;20188;-67
2023/01/31 06:43:29;;;;;;;8.63;4.53;;;5.20;99.90;;;;;;5088532;28;20549;-66
2023/01/31 06:45:54;;;;;;;14.50;4.93;;;5.20;99.90;;;;;;5089485;28;20543;-65
2023/01/31 06:48:20;;;;;;;8.70;4.67;;;5.40;99.90;;;;;;5125249;27;20180;-66
2023/01/31 06:50:46;;;;;;;11.63;5.07;;;5.30;99.90;;;;;;5094568;28;20271;-66
2023/01/31 06:53:11;;;;;;;13.17;5.27;;;5.20;99.90;;;;;;5093437;28;20273;-66
2023/01/31 06:55:38;;;;;;;6.43;4.93;;;5.10;99.90;;;;;;5094053;28;20193;-66
2023/01/31 06:58:03;;;;;;;12.17;5.47;;;5.10;99.90;;;;;;5093394;28;20221;-66
2023/01/31 07:00:29;;;;;;;9.73;4.43;;;5.20;99.90;;;;;;5090476;28;20238;-65
2023/01/31 07:02:55;;;;;;;10.10;5.13;;;5.30;99.90;;;;;;5093665;28;20551;-65
2023/01/31 07:05:22;;;;;;;11.63;5.27;;;5.30;99.90;;;;;;5092543;28;20181;-66
2023/01/31 07:07:48;;;;;;;12.13;4.07;;;5.20;99.90;;;;;;5094184;28;20634;-65
2023/01/31 07:10:15;;;;;;;9.87;6.03;;;5.20;99.90;;;;;;5081228;28;20230;-66
2023/01/31 07:12:41;;;;;;;7.60;3.87;;;5.20;99.90;;;;;;5091284;28;20212;-66
2023/01/31 07:15:09;;;;;;;9.60;4.33;;;5.20;99.90;;;;;;5093497;28;20191;-66
2023/01/31 07:17:34;;;;;;;6.03;5.33;;;5.20;99.90;;;;;;5082612;28;20189;-66
2023/01/31 07:20:00;;;;;;;13.77;4.90;;;5.20;99.90;;;;;;5080601;28;20195;-66
2023/01/31 07:22:26;;;;;;;15.27;5.67;;;5.30;99.90;;;;;;5116891;27;20192;-68
2023/01/31 07:24:51;;;;;;;10.30;4.07;;;5.40;99.90;;;;;;5080083;28;20260;-67
2023/01/31 07:27:17;;;;;;;7.77;4.60;;;5.60;99.90;;;;;;5081854;28;20645;-67
2023/01/31 07:29:43;;;;;;;7.47;3.70;;;5.70;99.90;;;;;;5085599;28;20184;-66
2023/01/31 07:32:09;;;;;;;7.00;4.50;;;5.70;99.90;;;;;;5080182;28;20207;-67
2023/01/31 07:34:35;;;;;;;8.57;5.30;;;5.70;99.90;;;;;;5080614;28;20192;-66
2023/01/31 07:37:01;;;;;;;11.23;4.73;;;5.70;99.90;;;;;;5078479;28;20196;-67
2023/01/31 07:39:27;;;;;;;10.93;4.40;;;5.80;99.90;;;;;;5068492;28;20186;-66
2023/01/31 07:41:53;;;;;;;11.33;3.93;;;5.70;99.90;;;;;;5093470;28;20211;-68
2023/01/31 07:44:19;;;;;;;10.67;5.17;;;5.70;99.90;;;;;;5091664;28;20207;-67
2023/01/31 07:46:45;;;;;;;16.13;6.13;;;5.70;99.90;;;;;;5083660;28;20216;-67
2023/01/31 07:49:11;;;;;;;9.87;4.33;;;5.80;99.90;;;;;;5081111;28;20257;-65
2023/01/31 07:51:37;;;;;;;8.73;4.90;;;6.10;99.90;;;;;;5081011;28;20185;-66
2023/01/31 07:54:04;;;;;;;6.67;4.23;;;5.80;99.90;;;;;;5081477;28;20216;-67
2023/01/31 07:56:30;;;;;;;7.77;4.23;;;5.80;99.90;;;;;;5089529;28;20232;-68
2023/01/31 07:58:57;;;;;;;8.87;4.37;;;5.80;99.90;;;;;;5084326;28;20188;-66
2023/01/31 08:04:11;;;;;;;6.03;4.17;;;5.90;99.90;;;;;;5090498;28;20309;-65
2023/01/31 08:06:40;;;;;;;11.60;4.67;;;6.00;99.90;;;;;;5092377;28;20542;-66
2023/01/31 08:09:06;;;;;;;12.17;4.10;;;6.00;99.90;;;;;;5089687;28;20212;-66
2023/01/31 08:11:31;;;;;;;8.20;4.80;;;5.90;99.90;;;;;;5091908;28;20667;-66
2023/01/31 08:13:57;;;;;;;10.53;4.50;;;5.90;99.90;;;;;;5091814;28;20234;-66
2023/01/31 08:16:23;;;;;;;11.47;4.13;;;5.90;99.90;;;;;;5073049;28;20189;-66
2023/01/31 08:18:49;;;;;;;13.30;4.30;;;5.90;99.90;;;;;;5107826;27;20188;-66
2023/01/31 08:21:15;;;;;;;9.27;4.77;;;6.10;99.90;;;;;;5118107;27;20197;-66
2023/01/31 08:23:41;;;;;;;12.20;4.93;;;6.20;99.90;;;;;;5088432;28;20192;-66
2023/01/31 08:26:21;;;;;;;9.37;4.17;;;6.30;99.90;;;;;;5082615;28;20195;-66
2023/01/31 08:28:48;;;;;;;7.77;4.60;;;6.60;99.90;;;;;;5083352;28;20181;-66
2023/01/31 08:31:18;;;;;;;4.47;3.93;;;6.50;99.90;;;;;;5081502;28;20190;-66
2023/01/31 08:33:44;;;;;;;9.43;4.47;;;6.40;99.90;;;;;;5073108;28;20235;-67
2023/01/31 08:36:19;;;;;;;5.87;4.00;;;6.30;99.90;;;;;;5089613;28;20785;-66
2023/01/31 08:38:45;;;;;;;6.23;4.23;;;6.40;99.90;;;;;;5082072;28;20246;-66
2023/01/31 08:41:11;;;;;;;8.20;4.07;;;6.50;99.90;;;;;;5086440;28;20286;-65
2023/01/31 08:43:37;;;;;;;7.70;5.30;;;6.50;99.90;;;;;;5076818;28;20201;-66
2023/01/31 08:46:04;;;;;;;9.30;4.33;;;6.50;99.90;;;;;;5085336;28;20181;-67
2023/01/31 08:48:34;;;;;;;10.23;5.20;;;6.70;99.90;;;;;;5085743;28;20630;-66
2023/01/31 08:51:05;;;;;;;8.40;4.60;;;6.70;99.90;;;;;;5078681;28;20181;-65
2023/01/31 08:53:32;;;;;;;17.17;5.17;;;7.00;99.90;;;;;;5075455;28;20697;-66
2023/01/31 08:56:04;;;;;;;12.70;4.30;;;6.70;99.90;;;;;;5089222;28;20192;-66
2023/01/31 08:58:34;;;;;;;12.17;5.30;;;6.50;99.90;;;;;;5110001;28;20188;-67
2023/01/31 09:01:05;;;;;;;17.13;4.60;;;6.40;99.90;;;;;;5081994;28;20180;-66
2023/01/31 09:03:30;;;;;;;7.67;5.33;;;6.60;99.90;;;;;;5086963;28;20195;-66
2023/01/31 09:06:05;;;;;;;9.67;3.47;;;6.60;99.90;;;;;;5096378;28;20184;-66
2023/01/31 09:08:31;;;;;;;8.87;4.90;;;6.70;99.90;;;;;;5090910;28;20538;-65
2023/01/31 09:10:59;;;;;;;9.63;4.57;;;6.80;99.90;;;;;;5074982;28;20180;-66
2023/01/31 09:13:25;;;;;;;15.23;5.47;;;6.90;99.90;;;;;;5091444;28;20306;-66
2023/01/31 09:16:09;;;;;;;13.03;4.70;;;6.90;99.90;;;;;;5080424;28;20184;-66
2023/01/31 09:18:36;;;;;;;12.80;5.73;;;7.00;99.90;;;;;;5079553;28;20188;-66
2023/01/31 09:21:06;;;;;;;9.77;3.90;;;7.20;99.90;;;;;;5076930;28;20303;-66
2023/01/31 09:23:32;;;;;;;12.20;3.87;;;7.20;99.90;;;;;;5085637;28;20234;-66
2023/01/31 09:25:58;;;;;;;10.03;4.63;;;7.10;99.90;;;;;;5086827;28;20447;-66
2023/01/31 09:28:24;;;;;;;12.90;4.37;;;7.30;99.90;;;;;;5072260;28;20277;-66
2023/01/31 09:30:52;;;;;;;17.23;5.13;;;7.50;99.90;;;;;;5081562;28;20209;-66
2023/01/31 09:33:19;;;;;;;13.83;5.07;;;7.60;99.90;;;;;;5082581;28;20296;-65
2023/01/31 09:35:59;;;;;;;8.90;3.70;;;7.80;99.90;;;;;;5081978;28;20649;-66
2023/01/31 09:38:25;;;;;;;8.03;4.13;;;7.70;99.90;;;;;;5095943;28;20189;-65
2023/01/31 09:40:52;;;;;;;11.80;4.30;;;7.70;99.90;;;;;;5083084;28;20195;-65
2023/01/31 09:43:23;;;;;;;8.23;3.80;;;7.80;99.90;;;;;;5093899;28;20192;-66
2023/01/31 09:45:52;;;;;;;11.73;4.37;;;7.90;99.90;;;;;;5095806;28;20188;-67
2023/01/31 09:48:21;;;;;;;9.47;5.93;;;7.90;99.90;;;;;;5123091;27;20181;-66
2023/01/31 09:50:55;;;;;;;7.97;3.47;;;7.90;99.90;;;;;;5088284;28;20279;-67
2023/01/31 09:53:26;;;;;;;13.77;5.30;;;8.00;99.90;;;;;;5096054;28;20262;-67
2023/01/31 09:56:23;;;;;;;11.10;4.80;;;8.10;99.90;;;;;;5094501;28;20172;-66
2023/01/31 09:59:13;;;;;;;11.47;4.60;;;8.00;99.90;;;;;;5094517;28;20192;-66
2023/01/31 10:02:23;;;;;;;8.57;5.07;;;8.00;99.90;;;;;;5088414;28;20231;-66
2023/01/31 10:05:15;;;;;;;8.57;5.03;;;7.90;99.90;;;;;;5081750;28;20188;-67
2023/01/31 10:08:05;;;;;;;8.27;5.50;;;7.90;99.90;;;;;;5088887;28;20185;-66
2023/01/31 10:10:44;;;;;;;10.73;4.53;;;7.80;99.90;;;;;;5085197;28;20623;-66
2023/01/31 10:13:24;;;;;;;9.97;4.63;;;7.60;99.90;;;;;;5083399;28;20218;-66
2023/01/31 10:16:20;;;;;;;12.90;4.90;;;7.80;99.90;;;;;;5082320;28;20181;-66
2023/01/31 10:18:51;;;;;;;10.87;4.70;;;7.80;99.90;;;;;;5085122;28;20192;-66
2023/01/31 10:21:21;;;;;;;6.83;4.07;;;7.70;99.90;;;;;;5112755;27;20607;-65
2023/01/31 10:23:58;;;;;;;10.10;4.60;;;7.60;99.90;;;;;;5091130;28;20188;-66
2023/01/31 10:26:35;;;;;;;9.17;4.53;;;7.80;99.90;;;;;;5081320;28;20251;-66
2023/01/31 10:29:16;;;;;;;13.70;6.33;;;7.90;99.90;;;;;;5099478;28;20555;-65
2023/01/31 10:32:03;;;;;;;8.37;4.53;;;8.10;99.90;;;;;;5105552;28;20511;-66
2023/01/31 10:34:42;;;;;;;14.30;5.70;;;8.10;99.90;;;;;;5091181;28;20187;-65
2023/01/31 10:37:29;;;;;;;19.80;5.60;;;8.30;99.90;;;;;;5085152;28;20181;-66
2023/01/31 10:40:00;;;;;;;7.90;4.87;;;8.60;99.90;;;;;;5093782;28;20180;-66
2023/01/31 10:42:36;;;;;;;7.40;4.73;;;8.80;99.90;;;;;;5093738;28;20211;-66
2023/01/31 10:45:07;;;;;;;13.57;5.70;;;8.90;99.90;;;;;;5088412;28;20192;-66
2023/01/31 10:47:49;;;;;;;6.80;4.13;;;9.00;99.90;;;;;;5092768;28;20195;-66
2023/01/31 10:50:24;;;;;;;9.50;4.53;;;9.20;99.90;;;;;;5096579;28;20207;-65
2023/01/31 10:53:30;;;;;;;10.70;5.60;;;9.20;99.90;;;;;;5094151;28;20590;-66
2023/01/31 10:56:03;;;;;;;9.13;3.97;;;9.10;99.90;;;;;;5081910;28;20177;-66
2023/01/31 10:58:30;;;;;;;10.47;4.83;;;9.40;99.90;;;;;;5085175;28;20188;-65
2023/01/31 11:00:56;;;;;;;6.83;4.40;;;9.50;99.90;;;;;;5093235;28;20322;-65
2023/01/31 11:03:22;;;;;;;9.63;4.60;;;9.60;99.90;;;;;;5090999;28;20185;-66
2023/01/31 11:05:50;;;;;;;12.97;4.07;;;9.50;99.90;;;;;;5084344;28;20188;-65
2023/01/31 11:08:44;;;;;;;7.33;4.70;;;9.70;99.90;;;;;;5092888;28;20534;-66
2023/01/31 11:11:13;;;;;;;9.70;4.33;;;9.70;99.90;;;;;;5083281;28;20184;-65
2023/01/31 11:13:39;;;;;;;11.20;6.47;;;9.70;99.90;;;;;;5092572;28;20220;-66
2023/01/31 11:16:10;;;;;;;9.20;3.90;;;9.80;99.90;;;;;;5092544;28;20326;-65
2023/01/31 11:18:47;;;;;;;6.97;3.83;;;9.80;99.90;;;;;;5094151;28;20196;-65
2023/01/31 11:21:22;;;;;;;6.57;4.17;;;9.70;99.90;;;;;;5090014;28;20172;-66
2023/01/31 11:23:49;;;;;;;9.93;4.40;;;9.70;99.90;;;;;;5093788;28;20207;-66
2023/01/31 11:26:29;;;;;;;14.23;4.30;;;9.40;99.90;;;;;;5093021;28;20238;-66
2023/01/31 11:28:55;;;;;;;12.87;5.13;;;9.40;99.90;;;;;;5092446;28;20191;-66
2023/01/31 11:31:32;;;;;;;12.07;4.43;;;9.50;99.90;;;;;;5093047;28;20185;-66
2023/01/31 11:34:17;;;;;;;7.97;4.00;;;9.40;99.90;;;;;;5084660;28;20211;-66
2023/01/31 11:36:46;;;;;;;10.80;4.83;;;9.50;99.90;;;;;;5087203;28;20170;-66
2023/01/31 11:39:31;;;;;;;8.37;4.13;;;9.70;99.90;;;;;;5086679;28;20192;-66
2023/01/31 11:42:11;;;;;;;11.23;5.23;;;9.70;99.90;;;;;;5085537;28;20185;-65
2023/01/31 11:44:53;;;;;;;13.83;4.73;;;9.60;99.90;;;;;;5091885;28;20179;-66
2023/01/31 11:47:31;;;;;;;14.43;4.60;;;9.70;99.90;;;;;;5092835;28;20245;-66
2023/01/31 11:49:58;;;;;;;9.10;4.30;;;9.90;99.90;;;;;;5092684;28;20187;-66
2023/01/31 11:52:30;;;;;;;9.50;3.93;;;9.90;99.90;;;;;;5092250;28;20201;-66
2023/01/31 11:55:04;;;;;;;11.83;4.33;;;10.00;99.90;;;;;;5078947;28;20575;-66
2023/01/31 11:57:33;;;;;;;13.97;5.33;;;10.10;99.90;;;;;;5087149;28;20228;-66
2023/01/31 12:00:03;;;;;;;10.27;4.47;;;10.30;99.90;;;;;;5091572;28;20208;-65
2023/01/31 12:02:39;;;;;;;10.10;4.00;;;10.50;99.90;;;;;;5092490;28;20526;-66
2023/01/31 12:05:17;;;;;;;10.80;5.15;;;10.60;99.90;;;;;;5082050;28;20229;-65
2023/01/31 12:07:49;;;;;;;14.13;3.80;;;10.60;99.90;;;;;;5091602;28;20188;-66
2023/01/31 12:10:32;;;;;;;5.93;4.03;;;10.50;99.90;;;;;;5083557;28;20184;-66
2023/01/31 12:13:00;;;;;;;8.20;4.03;;;10.50;99.90;;;;;;5078787;28;20204;-66
2023/01/31 12:15:28;;;;;;;6.32;4.40;;;10.50;99.90;;;;;;5084781;28;20192;-66
2023/01/31 12:17:54;;;;;;;11.80;4.28;;;10.60;99.90;;;;;;5085496;28;20570;-66
2023/01/31 12:20:43;;;;;;;7.78;4.35;;;10.50;99.90;;;;;;5100396;28;20242;-66
2023/01/31 12:23:28;;;;;;;13.83;4.00;;;10.40;99.90;;;;;;5092034;28;20180;-66
2023/01/31 12:25:53;;;;;;;13.53;4.83;;;10.40;99.90;;;;;;5086793;28;20172;-66
2023/01/31 12:28:58;;;;;;;10.10;4.23;;;10.30;99.90;;;;;;5092494;28;20188;-66
2023/01/31 12:32:01;;;;;;;9.50;3.97;;;10.30;99.90;;;;;;5049353;28;20182;-66
2023/01/31 12:35:17;;;;;;;10.10;4.50;;;10.00;99.90;;;;;;5035047;28;20201;-66
2023/01/31 12:38:14;;;;;;;14.73;3.97;;;10.10;99.90;;;;;;5102312;28;20187;-67
2023/01/31 12:40:55;;;;;;;18.50;5.27;;;10.00;99.90;;;;;;5091051;28;20265;-66
2023/01/31 12:43:21;;;;;;;15.43;5.53;;;9.80;99.90;;;;;;5090154;28;20188;-65
2023/01/31 12:46:19;;;;;;;8.67;5.17;;;9.80;99.90;;;;;;5091892;28;20526;-65
2023/01/31 12:49:30;;;;;;;9.53;5.23;;;9.80;99.90;;;;;;5060375;28;20208;-65
2023/01/31 12:52:01;;;;;;;9.83;4.43;;;9.80;99.90;;;;;;5089227;28;20260;-66
2023/01/31 12:55:05;;;;;;;10.37;4.43;;;9.90;99.90;;;;;;5090836;28;20185;-65
2023/01/31 12:57:56;;;;;;;9.90;4.87;;;9.90;99.90;;;;;;5079703;28;20232;-66
2023/01/31 13:00:21;;;;;;;16.47;5.23;;;10.00;99.90;;;;;;5091343;28;20271;-66
2023/01/31 13:03:23;;;;;;;7.90;5.00;;;10.00;99.90;;;;;;5091994;28;20220;-66
2023/01/31 13:05:56;;;;;;;6.13;4.70;;;9.90;99.90;;;;;;5080468;28;20714;-66
2023/01/31 13:08:26;;;;;;;14.43;4.93;;;9.80;99.90;;;;;;5096744;28;20192;-67
2023/01/31 13:11:08;;;;;;;10.57;4.90;;;9.70;99.90;;;;;;5098847;28;20259;-66
2023/01/31 13:13:45;;;;;;;13.17;5.70;;;9.70;99.90;;;;;;5097114;28;20200;-66
2023/01/31 13:16:21;;;;;;;15.87;5.70;;;9.70;99.90;;;;;;5095807;28;20538;-64
2023/01/31 13:18:50;;;;;;;15.37;5.67;;;9.60;99.90;;;;;;5093045;28;20183;-66
2023/01/31 13:21:20;;;;;;;12.93;5.37;;;9.60;99.90;;;;;;5083882;28;20184;-66
2023/01/31 13:23:56;;;;;;;9.70;5.07;;;9.50;99.90;;;;;;5098417;28;20180;-67